sensor_id;sensor_type;location;lat;lon;timestamp;pressure;altitude;pressure_sealevel;temperature;humidity
15634;BME280;14654;48.898;8.308;2022-11-15T00:00:51;99989.47;;;7.66;100.00
15634;BME280;14654;48.898;8.308;2022-11-15T00:03:18;99995.50;;;7.66;100.00
15634;BME280;14654;48.898;8.308;2022-11-15T00:05:44;99994.63;;;7.64;100.00
15634;BME280;14654;48.898;8.308;2022-11-15T00:08:09;99993.78;;;7.62;100.00
15634;BME280;14654;48.898;8.308;2022-11-15T00:10:36;99994.63;;;7.58;100.00
15634;BME280;14654;48.898;8.308;2022-11-15T00:13:10;99987.78;;;7.55;100.00
15634;BME280;14654;48.898;8.308;2022-11-15T00:15:39;99986.06;;;7.51;100.00
15634;BME280;14654;48.898;8.308;2022-11-15T00:18:06;99986.09;;;7.48;100.00
15634;BME280;14654;48.898;8.308;2022-11-15T00:20:35;99986.94;;;7.45;100.00
15634;BME280;14654;48.898;8.308;2022-11-15T00:23:00;99982.66;;;7.43;100.00
15634;BME280;14654;48.898;8.308;2022-11-15T00:25:25;99986.09;;;7.40;100.00
15634;BME280;14654;48.898;8.308;2022-11-15T00:27:55;99986.09;;;7.37;100.00
15634;BME280;14654;48.898;8.308;2022-11-15T00:30:21;99986.94;;;7.35;100.00
15634;BME280;14654;48.898;8.308;2022-11-15T00:32:46;99983.50;;;7.34;100.00
15634;BME280;14654;48.898;8.308;2022-11-15T00:35:12;99974.91;;;7.33;100.00
15634;BME280;14654;48.898;8.308;2022-11-15T00:37:37;99982.66;;;7.35;100.00
15634;BME280;14654;48.898;8.308;2022-11-15T00:40:03;99980.94;;;7.39;100.00
15634;BME280;14654;48.898;8.308;2022-11-15T00:42:28;99983.50;;;7.45;100.00
15634;BME280;14654;48.898;8.308;2022-11-15T00:44:53;99969.75;;;7.47;100.00
15634;BME280;14654;48.898;8.308;2022-11-15T00:47:19;99965.47;;;7.53;100.00
15634;BME280;14654;48.898;8.308;2022-11-15T00:49:44;99964.59;;;7.58;100.00
15634;BME280;14654;48.898;8.308;2022-11-15T00:52:09;99963.75;;;7.62;100.00
15634;BME280;14654;48.898;8.308;2022-11-15T00:54:35;99955.97;;;7.66;100.00
15634;BME280;14654;48.898;8.308;2022-11-15T00:57:00;99963.72;;;7.67;100.00
15634;BME280;14654;48.898;8.308;2022-11-15T00:59:25;99962.88;;;7.68;100.00
15634;BME280;14654;48.898;8.308;2022-11-15T01:01:51;99951.72;;;7.69;100.00
15634;BME280;14654;48.898;8.308;2022-11-15T01:04:16;99947.41;;;7.70;100.00
15634;BME280;14654;48.898;8.308;2022-11-15T01:06:41;99944.84;;;7.68;100.00
15634;BME280;14654;48.898;8.308;2022-11-15T01:09:07;99942.25;;;7.68;100.00
15634;BME280;14654;48.898;8.308;2022-11-15T01:11:32;99938.81;;;7.68;100.00
15634;BME280;14654;48.898;8.308;2022-11-15T01:13:57;99945.69;;;7.69;100.00
15634;BME280;14654;48.898;8.308;2022-11-15T01:16:23;99943.09;;;7.69;100.00
15634;BME280;14654;48.898;8.308;2022-11-15T01:18:48;99932.81;;;7.67;100.00
15634;BME280;14654;48.898;8.308;2022-11-15T01:21:16;99942.25;;;7.70;100.00
15634;BME280;14654;48.898;8.308;2022-11-15T01:23:42;99948.25;;;7.69;100.00
15634;BME280;14654;48.898;8.308;2022-11-15T01:26:11;99945.69;;;7.70;100.00
15634;BME280;14654;48.898;8.308;2022-11-15T01:28:38;99953.41;;;7.72;100.00
15634;BME280;14654;48.898;8.308;2022-11-15T01:31:06;99944.81;;;7.74;100.00
15634;BME280;14654;48.898;8.308;2022-11-15T01:33:34;99943.94;;;7.75;100.00
15634;BME280;14654;48.898;8.308;2022-11-15T01:36:06;99942.25;;;7.76;100.00
15634;BME280;14654;48.898;8.308;2022-11-15T01:38:32;99942.25;;;7.76;100.00
15634;BME280;14654;48.898;8.308;2022-11-15T01:40:57;99947.38;;;7.76;100.00
15634;BME280;14654;48.898;8.308;2022-11-15T01:43:24;99941.38;;;7.77;100.00
15634;BME280;14654;48.898;8.308;2022-11-15T01:45:57;99930.19;;;7.80;100.00
15634;BME280;14654;48.898;8.308;2022-11-15T01:48:30;99931.06;;;7.82;100.00
15634;BME280;14654;48.898;8.308;2022-11-15T01:50:58;99917.31;;;7.86;100.00
15634;BME280;14654;48.898;8.308;2022-11-15T01:53:24;99914.69;;;7.89;100.00
15634;BME280;14654;48.898;8.308;2022-11-15T01:55:51;99910.41;;;7.92;100.00
15634;BME280;14654;48.898;8.308;2022-11-15T01:58:17;99912.94;;;7.96;100.00
15634;BME280;14654;48.898;8.308;2022-11-15T02:00:42;99907.81;;;7.97;100.00
15634;BME280;14654;48.898;8.308;2022-11-15T02:03:08;99905.22;;;7.99;100.00
15634;BME280;14654;48.898;8.308;2022-11-15T02:05:35;99911.22;;;8.01;100.00
15634;BME280;14654;48.898;8.308;2022-11-15T02:08:01;99906.94;;;8.01;100.00
15634;BME280;14654;48.898;8.308;2022-11-15T02:10:28;99902.66;;;8.00;100.00
15634;BME280;14654;48.898;8.308;2022-11-15T02:12:54;99894.06;;;7.98;100.00
15634;BME280;14654;48.898;8.308;2022-11-15T02:15:21;99889.75;;;7.96;100.00
15634;BME280;14654;48.898;8.308;2022-11-15T02:18:02;99882.03;;;7.94;100.00
15634;BME280;14654;48.898;8.308;2022-11-15T02:20:46;99882.94;;;7.91;100.00
15634;BME280;14654;48.898;8.308;2022-11-15T02:26:07;99875.19;;;7.90;100.00
15634;BME280;14654;48.898;8.308;2022-11-15T02:29:10;99859.75;;;7.87;100.00
15634;BME280;14654;48.898;8.308;2022-11-15T02:31:55;99865.78;;;7.86;100.00
15634;BME280;14654;48.898;8.308;2022-11-15T02:37:16;99859.75;;;7.82;100.00
15634;BME280;14654;48.898;8.308;2022-11-15T02:40:00;99868.38;;;7.83;100.00
15634;BME280;14654;48.898;8.308;2022-11-15T02:42:36;99861.47;;;7.83;100.00
15634;BME280;14654;48.898;8.308;2022-11-15T02:45:36;99853.75;;;7.85;100.00
15634;BME280;14654;48.898;8.308;2022-11-15T02:48:05;99857.16;;;7.88;100.00
15634;BME280;14654;48.898;8.308;2022-11-15T02:50:32;99862.28;;;7.93;100.00
15634;BME280;14654;48.898;8.308;2022-11-15T02:52:58;99857.97;;;7.97;100.00
15634;BME280;14654;48.898;8.308;2022-11-15T03:00:58;99848.50;;;8.03;100.00
15634;BME280;14654;48.898;8.308;2022-11-15T03:06:42;99846.78;;;8.07;100.00
15634;BME280;14654;48.898;8.308;2022-11-15T03:09:27;99847.63;;;8.09;100.00
15634;BME280;14654;48.898;8.308;2022-11-15T03:12:04;99844.16;;;8.12;100.00
15634;BME280;14654;48.898;8.308;2022-11-15T03:14:35;99843.28;;;8.14;100.00
15634;BME280;14654;48.898;8.308;2022-11-15T03:17:08;99838.97;;;8.16;100.00
15634;BME280;14654;48.898;8.308;2022-11-15T03:19:58;99830.38;;;8.17;100.00
15634;BME280;14654;48.898;8.308;2022-11-15T03:22:27;99836.38;;;8.18;100.00
15634;BME280;14654;48.898;8.308;2022-11-15T03:24:56;99830.41;;;8.16;100.00
15634;BME280;14654;48.898;8.308;2022-11-15T03:27:25;99824.38;;;8.15;100.00
15634;BME280;14654;48.898;8.308;2022-11-15T03:29:57;99838.13;;;8.14;100.00
15634;BME280;14654;48.898;8.308;2022-11-15T03:32:28;99831.25;;;8.13;100.00
15634;BME280;14654;48.898;8.308;2022-11-15T03:37:32;99822.69;;;8.13;100.00
15634;BME280;14654;48.898;8.308;2022-11-15T03:40:01;99829.56;;;8.11;100.00
15634;BME280;14654;48.898;8.308;2022-11-15T03:42:38;99830.44;;;8.09;100.00
15634;BME280;14654;48.898;8.308;2022-11-15T03:45:21;99830.44;;;8.08;100.00
15634;BME280;14654;48.898;8.308;2022-11-15T03:48:02;99823.59;;;8.04;100.00
15634;BME280;14654;48.898;8.308;2022-11-15T03:50:30;99833.91;;;8.04;100.00
15634;BME280;14654;48.898;8.308;2022-11-15T03:52:57;99839.06;;;8.04;100.00
15634;BME280;14654;48.898;8.308;2022-11-15T03:55:23;99833.88;;;8.05;100.00
15634;BME280;14654;48.898;8.308;2022-11-15T03:57:50;99834.75;;;8.06;100.00
15634;BME280;14654;48.898;8.308;2022-11-15T04:00:18;99836.47;;;8.07;100.00
15634;BME280;14654;48.898;8.308;2022-11-15T04:02:43;99846.78;;;8.07;100.00
15634;BME280;14654;48.898;8.308;2022-11-15T04:05:09;99841.59;;;8.05;100.00
15634;BME280;14654;48.898;8.308;2022-11-15T04:07:34;99843.31;;;8.06;100.00
15634;BME280;14654;48.898;8.308;2022-11-15T04:09:59;99841.63;;;8.07;100.00
15634;BME280;14654;48.898;8.308;2022-11-15T04:12:36;99842.47;;;8.07;100.00
15634;BME280;14654;48.898;8.308;2022-11-15T04:15:05;99848.47;;;8.06;100.00
15634;BME280;14654;48.898;8.308;2022-11-15T04:17:37;99845.06;;;8.04;100.00
15634;BME280;14654;48.898;8.308;2022-11-15T04:20:05;99854.50;;;8.04;100.00
15634;BME280;14654;48.898;8.308;2022-11-15T04:22:52;99845.06;;;8.04;100.00
15634;BME280;14654;48.898;8.308;2022-11-15T04:25:36;99849.34;;;8.05;100.00
15634;BME280;14654;48.898;8.308;2022-11-15T04:28:01;99845.03;;;8.09;100.00
15634;BME280;14654;48.898;8.308;2022-11-15T04:30:26;99840.72;;;8.13;100.00
15634;BME280;14654;48.898;8.308;2022-11-15T04:32:52;99839.81;;;8.17;100.00
15634;BME280;14654;48.898;8.308;2022-11-15T04:35:17;99831.22;;;8.19;100.00
15634;BME280;14654;48.898;8.308;2022-11-15T04:37:42;99826.91;;;8.23;100.00
15634;BME280;14654;48.898;8.308;2022-11-15T04:40:08;99819.16;;;8.26;100.00
15634;BME280;14654;48.898;8.308;2022-11-15T04:42:33;99820.84;;;8.29;100.00
15634;BME280;14654;48.898;8.308;2022-11-15T04:44:59;99807.94;;;8.29;100.00
15634;BME280;14654;48.898;8.308;2022-11-15T04:47:24;99820.84;;;8.26;100.00
15634;BME280;14654;48.898;8.308;2022-11-15T04:49:49;99814.03;;;8.18;100.00
15634;BME280;14654;48.898;8.308;2022-11-15T04:52:14;99813.22;;;8.15;100.00
15634;BME280;14654;48.898;8.308;2022-11-15T04:54:40;99818.41;;;8.08;100.00
15634;BME280;14654;48.898;8.308;2022-11-15T04:57:07;99814.13;;;8.04;100.00
15634;BME280;14654;48.898;8.308;2022-11-15T04:59:32;99809.84;;;8.02;100.00
15634;BME280;14654;48.898;8.308;2022-11-15T05:01:59;99810.69;;;8.02;100.00
15634;BME280;14654;48.898;8.308;2022-11-15T05:04:24;99812.41;;;8.05;100.00
15634;BME280;14654;48.898;8.308;2022-11-15T05:06:50;99810.66;;;8.08;100.00
15634;BME280;14654;48.898;8.308;2022-11-15T05:09:17;99814.06;;;8.12;100.00
15634;BME280;14654;48.898;8.308;2022-11-15T05:11:44;99805.47;;;8.13;100.00
15634;BME280;14654;48.898;8.308;2022-11-15T05:14:09;99808.88;;;8.17;100.00
15634;BME280;14654;48.898;8.308;2022-11-15T05:16:35;99808.03;;;8.16;100.00
15634;BME280;14654;48.898;8.308;2022-11-15T05:19:00;99814.91;;;8.17;100.00
15634;BME280;14654;48.898;8.308;2022-11-15T05:21:26;99814.94;;;8.16;100.00
15634;BME280;14654;48.898;8.308;2022-11-15T05:23:51;99804.63;;;8.16;100.00
15634;BME280;14654;48.898;8.308;2022-11-15T05:26:17;99798.56;;;8.17;100.00
15634;BME280;14654;48.898;8.308;2022-11-15T05:28:43;99805.47;;;8.16;100.00
15634;BME280;14654;48.898;8.308;2022-11-15T05:31:11;99801.16;;;8.17;100.00
15634;BME280;14654;48.898;8.308;2022-11-15T05:33:40;99799.41;;;8.19;100.00
15634;BME280;14654;48.898;8.308;2022-11-15T05:36:12;99804.59;;;8.17;100.00
15634;BME280;14654;48.898;8.308;2022-11-15T05:38:39;99803.75;;;8.15;100.00
15634;BME280;14654;48.898;8.308;2022-11-15T05:41:05;99795.16;;;8.13;100.00
15634;BME280;14654;48.898;8.308;2022-11-15T05:43:33;99796.06;;;8.11;100.00
15634;BME280;14654;48.898;8.308;2022-11-15T05:46:02;99806.41;;;8.06;100.00
15634;BME280;14654;48.898;8.308;2022-11-15T05:48:29;99810.69;;;8.02;100.00
15634;BME280;14654;48.898;8.308;2022-11-15T05:50:55;99797.00;;;7.96;100.00
15634;BME280;14654;48.898;8.308;2022-11-15T05:53:21;99803.91;;;7.92;100.00
15634;BME280;14654;48.898;8.308;2022-11-15T05:55:48;99798.78;;;7.86;100.00
15634;BME280;14654;48.898;8.308;2022-11-15T05:58:14;99799.66;;;7.83;100.00
15634;BME280;14654;48.898;8.308;2022-11-15T06:00:39;99788.50;;;7.80;100.00
15634;BME280;14654;48.898;8.308;2022-11-15T06:03:05;99799.72;;;7.74;100.00
15634;BME280;14654;48.898;8.308;2022-11-15T06:05:30;99796.28;;;7.72;100.00
15634;BME280;14654;48.898;8.308;2022-11-15T06:07:59;99794.59;;;7.69;100.00
15634;BME280;14654;48.898;8.308;2022-11-15T06:10:24;99794.56;;;7.68;100.00
15634;BME280;14654;48.898;8.308;2022-11-15T06:12:59;99795.44;;;7.70;100.00
15634;BME280;14654;48.898;8.308;2022-11-15T06:15:25;99795.44;;;7.70;100.00
15634;BME280;14654;48.898;8.308;2022-11-15T06:17:51;99792.88;;;7.71;100.00
15634;BME280;14654;48.898;8.308;2022-11-15T06:20:17;99785.97;;;7.73;100.00
15634;BME280;14654;48.898;8.308;2022-11-15T06:22:42;99785.09;;;7.76;100.00
15634;BME280;14654;48.898;8.308;2022-11-15T06:25:08;99785.94;;;7.80;100.00
15634;BME280;14654;48.898;8.308;2022-11-15T06:27:33;99789.34;;;7.83;100.00
15634;BME280;14654;48.898;8.308;2022-11-15T06:29:58;99776.47;;;7.85;100.00
15634;BME280;14654;48.898;8.308;2022-11-15T06:32:24;99782.47;;;7.88;100.00
15634;BME280;14654;48.898;8.308;2022-11-15T06:34:49;99777.28;;;7.91;100.00
15634;BME280;14654;48.898;8.308;2022-11-15T06:37:15;99779.81;;;7.94;100.00
15634;BME280;14654;48.898;8.308;2022-11-15T06:39:40;99783.25;;;7.97;100.00
15634;BME280;14654;48.898;8.308;2022-11-15T06:42:05;99777.25;;;7.99;100.00
15634;BME280;14654;48.898;8.308;2022-11-15T06:44:32;99778.06;;;8.03;100.00
15634;BME280;14654;48.898;8.308;2022-11-15T06:46:58;99772.03;;;8.05;100.00
15634;BME280;14654;48.898;8.308;2022-11-15T06:49:23;99775.47;;;8.09;100.00
15634;BME280;14654;48.898;8.308;2022-11-15T06:51:48;99777.16;;;8.12;100.00
15634;BME280;14654;48.898;8.308;2022-11-15T06:54:14;99783.13;;;8.15;100.00
15634;BME280;14654;48.898;8.308;2022-11-15T06:56:39;99776.22;;;8.19;100.00
15634;BME280;14654;48.898;8.308;2022-11-15T06:59:04;99784.81;;;8.22;100.00
15634;BME280;14654;48.898;8.308;2022-11-15T07:01:30;99781.31;;;8.27;100.00
15634;BME280;14654;48.898;8.308;2022-11-15T07:03:55;99781.28;;;8.33;100.00
15634;BME280;14654;48.898;8.308;2022-11-15T07:06:20;99783.81;;;8.37;100.00
15634;BME280;14654;48.898;8.308;2022-11-15T07:08:46;99790.66;;;8.43;100.00
15634;BME280;14654;48.898;8.308;2022-11-15T07:11:11;99781.19;;;8.47;100.00
15634;BME280;14654;48.898;8.308;2022-11-15T07:13:36;99782.91;;;8.49;100.00
15634;BME280;14654;48.898;8.308;2022-11-15T07:16:07;99783.75;;;8.51;100.00
15634;BME280;14654;48.898;8.308;2022-11-15T07:18:39;99786.31;;;8.54;100.00
15634;BME280;14654;48.898;8.308;2022-11-15T07:21:06;99781.13;;;8.56;100.00
15634;BME280;14654;48.898;8.308;2022-11-15T07:23:32;99790.56;;;8.59;100.00
15634;BME280;14654;48.898;8.308;2022-11-15T07:25:58;99788.78;;;8.62;100.00
15634;BME280;14654;48.898;8.308;2022-11-15T07:28:25;99783.63;;;8.65;100.00
15634;BME280;14654;48.898;8.308;2022-11-15T07:30:51;99788.75;;;8.68;100.00
15634;BME280;14654;48.898;8.308;2022-11-15T07:33:16;99793.00;;;8.71;100.00
15634;BME280;14654;48.898;8.308;2022-11-15T07:35:41;99777.53;;;8.71;100.00
15634;BME280;14654;48.898;8.308;2022-11-15T07:38:08;99783.56;;;8.72;100.00
15634;BME280;14654;48.898;8.308;2022-11-15T07:40:33;99775.81;;;8.70;100.00
15634;BME280;14654;48.898;8.308;2022-11-15T07:43:03;99777.56;;;8.69;100.00
15634;BME280;14654;48.898;8.308;2022-11-15T07:45:29;99777.56;;;8.69;100.00
15634;BME280;14654;48.898;8.308;2022-11-15T07:47:55;99774.97;;;8.73;100.00
15634;BME280;14654;48.898;8.308;2022-11-15T07:50:22;99780.09;;;8.76;100.00
15634;BME280;14654;48.898;8.308;2022-11-15T07:52:53;99786.03;;;8.81;100.00
15634;BME280;14654;48.898;8.308;2022-11-15T07:55:18;99781.72;;;8.84;100.00
15634;BME280;14654;48.898;8.308;2022-11-15T07:57:44;99780.81;;;8.89;100.00
15634;BME280;14654;48.898;8.308;2022-11-15T08:00:09;99779.91;;;8.93;100.00
15634;BME280;14654;48.898;8.308;2022-11-15T08:02:35;99785.06;;;8.94;100.00
15634;BME280;14654;48.898;8.308;2022-11-15T08:05:00;99790.19;;;8.99;100.00
15634;BME280;14654;48.898;8.308;2022-11-15T08:07:28;99784.94;;;9.05;100.00
15634;BME280;14654;48.898;8.308;2022-11-15T08:09:55;99781.44;;;9.12;100.00
15634;BME280;14654;48.898;8.308;2022-11-15T08:12:21;99780.47;;;9.20;100.00
15634;BME280;14654;48.898;8.308;2022-11-15T08:14:47;99784.69;;;9.30;100.00
15634;BME280;14654;48.898;8.308;2022-11-15T08:17:12;99791.41;;;9.42;100.00
15634;BME280;14654;48.898;8.308;2022-11-15T08:19:37;99790.38;;;9.55;100.00
15634;BME280;14654;48.898;8.308;2022-11-15T08:22:03;99789.38;;;9.67;100.00
15634;BME280;14654;48.898;8.308;2022-11-15T08:24:28;99786.63;;;9.80;100.00
15634;BME280;14654;48.898;8.308;2022-11-15T08:26:53;99785.63;;;9.90;100.00
15634;BME280;14654;48.898;8.308;2022-11-15T08:29:19;99779.47;;;9.97;100.00
15634;BME280;14654;48.898;8.308;2022-11-15T08:31:44;99770.00;;;9.96;100.00
15634;BME280;14654;48.898;8.308;2022-11-15T08:34:09;99774.31;;;9.97;100.00
15634;BME280;14654;48.898;8.308;2022-11-15T08:36:35;99766.47;;;10.03;100.00
15634;BME280;14654;48.898;8.308;2022-11-15T08:39:00;99762.91;;;10.12;100.00
15634;BME280;14654;48.898;8.308;2022-11-15T08:41:34;99761.88;;;10.21;100.00
15634;BME280;14654;48.898;8.308;2022-11-15T08:44:01;99756.53;;;10.32;100.00
15634;BME280;14654;48.898;8.308;2022-11-15T08:46:27;99756.44;;;10.40;100.00
15634;BME280;14654;48.898;8.308;2022-11-15T08:48:52;99752.84;;;10.50;100.00
15634;BME280;14654;48.898;8.308;2022-11-15T08:51:17;99761.25;;;10.60;100.00
15634;BME280;14654;48.898;8.308;2022-11-15T08:53:43;99762.00;;;10.66;100.00
15634;BME280;14654;48.898;8.308;2022-11-15T08:56:10;99767.03;;;10.74;100.00
15634;BME280;14654;48.898;8.308;2022-11-15T08:58:36;99764.41;;;10.77;100.00
15634;BME280;14654;48.898;8.308;2022-11-15T09:01:02;99750.53;;;10.81;100.00
15634;BME280;14654;48.898;8.308;2022-11-15T09:03:28;99758.19;;;10.88;100.00
15634;BME280;14654;48.898;8.308;2022-11-15T09:06:00;99752.06;;;10.92;100.00
15634;BME280;14654;48.898;8.308;2022-11-15T09:08:29;99747.69;;;10.95;100.00
15634;BME280;14654;48.898;8.308;2022-11-15T09:10:54;99749.38;;;10.98;100.00
15634;BME280;14654;48.898;8.308;2022-11-15T09:13:20;99750.16;;;11.02;100.00
15634;BME280;14654;48.898;8.308;2022-11-15T09:15:45;99757.00;;;11.06;100.00
15634;BME280;14654;48.898;8.308;2022-11-15T09:18:11;99761.19;;;11.11;100.00
15634;BME280;14654;48.898;8.308;2022-11-15T09:20:36;99758.44;;;11.19;100.00
15634;BME280;14654;48.898;8.308;2022-11-15T09:23:02;99754.88;;;11.26;100.00
15634;BME280;14654;48.898;8.308;2022-11-15T09:25:29;99757.25;;;11.36;100.00
15634;BME280;14654;48.898;8.308;2022-11-15T09:27:55;99756.22;;;11.44;100.00
15634;BME280;14654;48.898;8.308;2022-11-15T09:30:21;99754.34;;;11.50;100.00
15634;BME280;14654;48.898;8.308;2022-11-15T09:32:47;99761.13;;;11.57;100.00
15634;BME280;14654;48.898;8.308;2022-11-15T09:35:12;99749.00;;;11.59;100.00
15634;BME280;14654;48.898;8.308;2022-11-15T09:37:38;99742.09;;;11.58;100.00
15634;BME280;14654;48.898;8.308;2022-11-15T09:40:03;99742.16;;;11.56;100.00
15634;BME280;14654;48.898;8.308;2022-11-15T09:45:23;99739.72;;;11.49;100.00
15634;BME280;14654;48.898;8.308;2022-11-15T09:48:15;99738.84;;;11.48;100.00
15634;BME280;14654;48.898;8.308;2022-11-15T09:50:49;99738.84;;;11.48;100.00
15634;BME280;14654;48.898;8.308;2022-11-15T09:56:01;99743.25;;;11.44;100.00
15634;BME280;14654;48.898;8.308;2022-11-15T09:58:37;99742.38;;;11.46;100.00
15634;BME280;14654;48.898;8.308;2022-11-15T10:01:08;99743.22;;;11.46;100.00
15634;BME280;14654;48.898;8.308;2022-11-15T10:03:39;99745.81;;;11.46;100.00
15634;BME280;14654;48.898;8.308;2022-11-15T10:06:14;99754.47;;;11.45;100.00
15634;BME280;14654;48.898;8.308;2022-11-15T10:09:02;99752.75;;;11.44;100.00
15634;BME280;14654;48.898;8.308;2022-11-15T10:11:35;99747.56;;;11.44;100.00
15634;BME280;14654;48.898;8.308;2022-11-15T10:14:04;99744.97;;;11.46;100.00
15634;BME280;14654;48.898;8.308;2022-11-15T10:24:40;99743.03;;;11.55;100.00
15634;BME280;14654;48.898;8.308;2022-11-15T10:27:12;99739.50;;;11.58;100.00
15634;BME280;14654;48.898;8.308;2022-11-15T10:29:46;99741.16;;;11.61;100.00
15634;BME280;14654;48.898;8.308;2022-11-15T10:32:13;99741.13;;;11.64;100.00
15634;BME280;14654;48.898;8.308;2022-11-15T10:34:39;99726.38;;;11.66;100.00
15634;BME280;14654;48.898;8.308;2022-11-15T10:37:04;99732.38;;;11.68;100.00
15634;BME280;14654;48.898;8.308;2022-11-15T10:39:30;99736.63;;;11.70;100.00
15634;BME280;14654;48.898;8.308;2022-11-15T10:41:56;99731.44;;;11.72;100.00
15634;BME280;14654;48.898;8.308;2022-11-15T10:44:31;99721.88;;;11.74;100.00
15634;BME280;14654;48.898;8.308;2022-11-15T10:49:27;99714.78;;;11.81;100.00
15634;BME280;14654;48.898;8.308;2022-11-15T10:51:58;99700.81;;;11.88;100.00
15634;BME280;14654;48.898;8.308;2022-11-15T10:54:28;99691.16;;;11.95;100.00
15634;BME280;14654;48.898;8.308;2022-11-15T10:56:57;99677.97;;;12.04;100.00
15634;BME280;14654;48.898;8.308;2022-11-15T10:59:31;99677.63;;;12.18;100.00
15634;BME280;14654;48.898;8.308;2022-11-15T11:01:59;99676.47;;;12.30;100.00
15634;BME280;14654;48.898;8.308;2022-11-15T11:04:25;99667.44;;;12.45;100.00
15634;BME280;14654;48.898;8.308;2022-11-15T11:09:34;99656.19;;;12.77;100.00
15634;BME280;14654;48.898;8.308;2022-11-15T11:12:01;99648.13;;;12.87;100.00
15634;BME280;14654;48.898;8.308;2022-11-15T11:14:29;99641.88;;;12.92;100.00
15634;BME280;14654;48.898;8.308;2022-11-15T11:33:20;99597.97;;;13.43;100.00
15634;BME280;14654;48.898;8.308;2022-11-15T11:38:51;99582.31;;;13.45;100.00
15634;BME280;14654;48.898;8.308;2022-11-15T11:46:54;99571.84;;;13.48;100.00
15634;BME280;14654;48.898;8.308;2022-11-15T11:49:29;99575.06;;;13.54;100.00
15634;BME280;14654;48.898;8.308;2022-11-15T11:52:02;99584.56;;;13.55;100.00
15634;BME280;14654;48.898;8.308;2022-11-15T11:54:58;99583.72;;;13.55;100.00
15634;BME280;14654;48.898;8.308;2022-11-15T11:57:33;99578.50;;;13.55;100.00
15634;BME280;14654;48.898;8.308;2022-11-15T12:00:09;99578.63;;;13.52;100.00
15634;BME280;14654;48.898;8.308;2022-11-15T12:02:41;99575.25;;;13.48;100.00
15634;BME280;14654;48.898;8.308;2022-11-15T12:07:42;99564.19;;;13.43;100.00
15634;BME280;14654;48.898;8.308;2022-11-15T12:10:21;99558.94;;;13.45;100.00
15634;BME280;14654;48.898;8.308;2022-11-15T12:13:08;99556.16;;;13.49;100.00
15634;BME280;14654;48.898;8.308;2022-11-15T12:15:43;99556.72;;;13.59;100.00
15634;BME280;14654;48.898;8.308;2022-11-15T12:18:15;99554.56;;;13.72;100.00
15634;BME280;14654;48.898;8.308;2022-11-15T12:20:52;99555.91;;;13.84;100.00
15634;BME280;14654;48.898;8.308;2022-11-15T12:23:24;99537.31;;;13.95;100.00
15634;BME280;14654;48.898;8.308;2022-11-15T12:26:01;99540.44;;;14.05;100.00
15634;BME280;14654;48.898;8.308;2022-11-15T12:29:06;99536.84;;;14.09;100.00
15634;BME280;14654;48.898;8.308;2022-11-15T12:31:39;99531.53;;;14.12;100.00
15634;BME280;14654;48.898;8.308;2022-11-15T12:36:46;99521.34;;;14.06;100.00
15634;BME280;14654;48.898;8.308;2022-11-15T12:39:13;99527.13;;;14.14;100.00
15634;BME280;14654;48.898;8.308;2022-11-15T12:41:44;99513.53;;;14.06;100.00
15634;BME280;14654;48.898;8.308;2022-11-15T12:44:12;99507.00;;;13.94;100.00
15634;BME280;14654;48.898;8.308;2022-11-15T12:49:41;99495.41;;;14.02;100.00
15634;BME280;14654;48.898;8.308;2022-11-15T13:07:57;99459.81;;;13.79;100.00
15634;BME280;14654;48.898;8.308;2022-11-15T13:13:02;99450.13;;;13.59;100.00
15634;BME280;14654;48.898;8.308;2022-11-15T13:15:55;99452.09;;;13.52;100.00
15634;BME280;14654;48.898;8.308;2022-11-15T13:18:34;99441.97;;;13.45;100.00
15634;BME280;14654;48.898;8.308;2022-11-15T13:21:00;99430.00;;;13.39;100.00
15634;BME280;14654;48.898;8.308;2022-11-15T13:23:27;99429.06;;;13.41;100.00
15634;BME280;14654;48.898;8.308;2022-11-15T13:26:05;99426.56;;;13.38;100.00
15634;BME280;14654;48.898;8.308;2022-11-15T13:28:37;99428.38;;;13.36;100.00
15634;BME280;14654;48.898;8.308;2022-11-15T13:31:27;99419.06;;;13.29;100.00
15634;BME280;14654;48.898;8.308;2022-11-15T13:33:56;99424.34;;;13.27;100.00
15634;BME280;14654;48.898;8.308;2022-11-15T13:36:25;99412.28;;;13.25;100.00
15634;BME280;14654;48.898;8.308;2022-11-15T13:39:13;99411.38;;;13.26;100.00
15634;BME280;14654;48.898;8.308;2022-11-15T13:41:48;99403.56;;;13.26;100.00
15634;BME280;14654;48.898;8.308;2022-11-15T13:44:31;99400.88;;;13.29;100.00
15634;BME280;14654;48.898;8.308;2022-11-15T13:47:13;99398.34;;;13.27;100.00
15634;BME280;14654;48.898;8.308;2022-11-15T13:49:39;99394.06;;;13.26;100.00
15634;BME280;14654;48.898;8.308;2022-11-15T13:52:07;99388.69;;;13.31;100.00
15634;BME280;14654;48.898;8.308;2022-11-15T13:54:44;99384.31;;;13.32;100.00
15634;BME280;14654;48.898;8.308;2022-11-15T13:59:49;99364.03;;;13.18;100.00
15634;BME280;14654;48.898;8.308;2022-11-15T14:02:29;99365.75;;;13.19;100.00
15634;BME280;14654;48.898;8.308;2022-11-15T14:07:27;99356.78;;;13.27;100.00
15634;BME280;14654;48.898;8.308;2022-11-15T14:09:53;99356.69;;;13.31;100.00
15634;BME280;14654;48.898;8.308;2022-11-15T14:14:53;99347.03;;;13.33;100.00
15634;BME280;14654;48.898;8.308;2022-11-15T14:17:34;99347.94;;;13.32;100.00
15634;BME280;14654;48.898;8.308;2022-11-15T14:20:00;99349.72;;;13.31;100.00
15634;BME280;14654;48.898;8.308;2022-11-15T14:22:27;99344.59;;;13.30;100.00
15634;BME280;14654;48.898;8.308;2022-11-15T14:25:16;99337.69;;;13.29;100.00
15634;BME280;14654;48.898;8.308;2022-11-15T14:28:07;99330.78;;;13.27;100.00
15634;BME280;14654;48.898;8.308;2022-11-15T14:30:29;99330.91;;;13.24;100.00
15634;BME280;14654;48.898;8.308;2022-11-15T14:32:55;99326.69;;;13.20;100.00
15634;BME280;14654;48.898;8.308;2022-11-15T14:35:22;99331.06;;;13.20;100.00
15634;BME280;14654;48.898;8.308;2022-11-15T14:37:48;99319.00;;;13.17;100.00
15634;BME280;14654;48.898;8.308;2022-11-15T14:40:18;99319.88;;;13.18;100.00
15634;BME280;14654;48.898;8.308;2022-11-15T14:42:45;99317.44;;;13.13;100.00